Flight Track Log - Related Links

Times and Time Zones

All times are in EDT time to prevent confusion due to time zone crossing. See the UPS2061 flight status page for this flight to view local times or setup timezone preferences in your user account.

Time Position Orientation Groundspeed Altitude Reporting Facility
EDT Latitude Longitude Course Direction KTS MPH feet Rate Location/Type
Fri 07:20:19 AM 41.9417 -72.6969 317° Northwest 152 175 900  Level Boston Center
Fri 07:21:48 AM 41.9956 -72.7642 317° Northwest 173 199 4,100 2,760 Climbing Boston Center
Fri 07:22:49 AM 42.0581 -72.8036 335° Northwest 217 250 7,800 3,277 Climbing Boston Center
Fri 07:23:47 AM 42.1267 -72.8461 335° Northwest 253 291 10,600 2,505 Climbing Boston Center
Fri 07:29:17 AM 42.2400 -73.5270 335° Northwest 416 479 24,000 2,354 Climbing FlightAware ADS-B
Fri 07:29:54 AM 42.2320 -73.6220 264° West 427 491 25,000 1,714 Climbing FlightAware ADS-B
Fri 07:30:27 AM 42.2230 -73.7110 262° West 432 497 26,000 1,643 Climbing FlightAware ADS-B
Fri 07:31:18 AM 42.2100 -73.8510 263° West 441 507 27,300 1,683 Climbing FlightAware ADS-B
Fri 07:31:49 AM 42.2030 -73.9300 263° West 441 507 28,300 2,000 Climbing FlightAware ADS-B
Fri 07:32:30 AM 42.1920 -74.0430 263° West 436 502 29,700 1,973 Climbing FlightAware ADS-B
Fri 07:33:02 AM 42.1840 -74.1290 263° West 433 498 30,700 1,826 Climbing FlightAware ADS-B
Fri 07:33:39 AM 42.1740 -74.2300 262° West 429 494 31,800 1,742 Climbing FlightAware ADS-B
Fri 07:34:04 AM 42.1670 -74.2974 262° West 428 493 32,500 1,629 Climbing FlightAware ADS-B
Fri 07:34:49 AM 42.1554 -74.4138 262° West 424 488 33,700 1,098 Climbing FlightAware ADS-B
Fri 07:35:26 AM 42.1457 -74.5105 262° West 423 487 34,000 261 Climbing FlightAware ADS-B
Fri 07:35:58 AM 42.1375 -74.5924 262° West 422 486 34,000  Level FlightAware ADS-B
Fri 07:36:35 AM 42.1281 -74.6872 262° West 417 480 34,000  Level FlightAware ADS-B
Fri 07:37:08 AM 42.1192 -74.7733 262° West 415 478 34,000  Level FlightAware ADS-B
Fri 07:37:39 AM 42.1111 -74.8515 262° West 413 475 34,000  Level FlightAware ADS-B
Fri 07:38:14 AM 42.1019 -74.9406 262° West 412 474 34,000  Level FlightAware ADS-B
Fri 07:38:49 AM 42.0929 -75.0281 262° West 411 473 34,000  Level FlightAware ADS-B
Fri 07:39:21 AM 42.0843 -75.1089 262° West 412 474 34,000  Level FlightAware ADS-B
Fri 07:39:52 AM 42.0761 -75.1868 262° West 412 474 34,000  Level FlightAware ADS-B
Fri 07:40:28 AM 42.0632 -75.2772 259° West 412 474 34,000  Level FlightAware ADS-B
Fri 07:41:08 AM 42.0375 -75.3750 251° West 412 474 34,000  Level FlightAware ADS-B
Fri 07:41:54 AM 41.9970 -75.4780 242° Southwest 412 474 34,000  Level FlightAware ADS-B
Fri 07:42:30 AM 41.9640 -75.5580 241° Southwest 411 473 34,000  Level FlightAware ADS-B
Fri 07:43:02 AM 41.9340 -75.6280 240° Southwest 410 472 34,000  Level FlightAware ADS-B
Fri 07:43:38 AM 41.9010 -75.7080 241° Southwest 410 472 34,000  Level FlightAware ADS-B
Fri 07:44:14 AM 41.8670 -75.7890 241° Southwest 410 472 34,000  Level FlightAware ADS-B
Fri 07:44:46 AM 41.8380 -75.8600 241° Southwest 410 472 34,000  Level FlightAware ADS-B
Fri 07:45:12 AM 41.8140 -75.9172 241° Southwest 410 472 34,000  Level FlightAware ADS-B
Fri 07:45:44 AM 41.7839 -75.9891 241° Southwest 411 473 34,000  Level FlightAware ADS-B
Fri 07:46:20 AM 41.7505 -76.0684 241° Southwest 412 474 34,000  Level FlightAware ADS-B
Fri 07:46:53 AM 41.7198 -76.1411 241° Southwest 412 474 34,000 91 Level FlightAware ADS-B
Fri 07:47:26 AM 41.6886 -76.2154 241° Southwest 411 473 34,100  Climbing FlightAware ADS-B
Fri 07:47:56 AM 41.6604 -76.2819 240° Southwest 410 472 34,000 -91 Descending FlightAware ADS-B
Fri 07:48:32 AM 41.6272 -76.3603 240° Southwest 409 471 34,000  Level FlightAware ADS-B
Fri 07:49:03 AM 41.5984 -76.4281 240° Southwest 408 470 34,000  Level FlightAware ADS-B
Fri 07:49:41 AM 41.5630 -76.5113 240° Southwest 407 468 34,000  Level FlightAware ADS-B
Fri 07:50:13 AM 41.5337 -76.5801 240° Southwest 408 470 34,000  Level FlightAware ADS-B
Fri 07:50:44 AM 41.5042 -76.6491 240° Southwest 408 470 34,000  Level FlightAware ADS-B
Fri 07:51:20 AM 41.4711 -76.7263 240° Southwest 408 470 34,000  Level FlightAware ADS-B
Fri 07:51:52 AM 41.4411 -76.7961 240° Southwest 408 470 34,000  Level FlightAware ADS-B
Fri 07:52:22 AM 41.4127 -76.8620 240° Southwest 408 470 34,000  Level FlightAware ADS-B
Fri 07:53:06 AM 41.3719 -76.9567 240° Southwest 408 470 34,000  Level FlightAware ADS-B
Fri 07:54:01 AM 41.3197 -77.0773 240° Southwest 408 470 34,000  Level FlightAware ADS-B
Fri 07:54:31 AM 41.2920 -77.1400 240° Southwest 407 468 34,000  Level FlightAware ADS-B
Fri 07:54:40 AM 41.2835 -77.1604 241° Southwest 408 470 34,000  Level FlightAware ADS-B
Fri 07:55:40 AM 41.2310 -77.2800 240° Southwest 410 472 34,000  Level FlightAware ADS-B
Fri 07:56:15 AM 41.1990 -77.3530 240° Southwest 412 474 34,000  Level FlightAware ADS-B
Fri 07:56:52 AM 41.1630 -77.4370 240° Southwest 414 476 34,000  Level FlightAware ADS-B
Fri 07:57:22 AM 41.1290 -77.5140 240° Southwest 413 475 34,000  Level FlightAware ADS-B
Fri 07:58:03 AM 41.0910 -77.5990 239° Southwest 407 468 34,000  Level FlightAware ADS-B
Fri 07:58:32 AM 41.0630 -77.6620 239° Southwest 406 467 34,000  Level FlightAware ADS-B
Fri 07:59:12 AM 41.0280 -77.7430 240° Southwest 409 471 34,000  Level FlightAware ADS-B
Fri 07:59:45 AM 40.9950 -77.8170 239° Southwest 410 472 34,000  Level FlightAware ADS-B
Fri 08:00:15 AM 40.9710 -77.8830 244° Southwest 407 468 34,000  Level FlightAware ADS-B
Fri 08:00:50 AM 40.9510 -77.9630 252° West 404 465 34,000  Level FlightAware ADS-B
Fri 08:01:30 AM 40.9270 -78.0610 252° West 401 461 34,000  Level FlightAware ADS-B
Fri 08:02:15 AM 40.9030 -78.1590 252° West 401 461 34,000  Level FlightAware ADS-B
Fri 08:02:55 AM 40.8800 -78.2460 251° West 403 464 34,000  Level FlightAware ADS-B
Fri 08:03:34 AM 40.8560 -78.3420 252° West 405 466 34,000  Level FlightAware ADS-B
Fri 08:04:10 AM 40.8340 -78.4270 251° West 408 470 34,000  Level FlightAware ADS-B
Fri 08:04:44 AM 40.8140 -78.5080 252° West 408 470 34,000  Level FlightAware ADS-B
Fri 08:05:19 AM 40.7920 -78.5910 251° West 408 470 34,000  Level FlightAware ADS-B
Fri 08:05:55 AM 40.7700 -78.6770 251° West 408 470 34,000  Level FlightAware ADS-B
Fri 08:06:29 AM 40.7490 -78.7590 251° West 409 471 34,000  Level FlightAware ADS-B
Fri 08:07:09 AM 40.7250 -78.8540 252° West 411 473 34,000  Level FlightAware ADS-B
Fri 08:07:34 AM 40.7100 -78.9100 251° West 412 474 34,000  Level FlightAware ADS-B
Fri 08:08:14 AM 40.6860 -79.0030 251° West 413 475 34,000  Level FlightAware ADS-B
Fri 08:08:49 AM 40.6620 -79.0930 251° West 415 478 34,000  Level FlightAware ADS-B
Fri 08:09:26 AM 40.6430 -79.1670 251° West 417 480 34,000  Level FlightAware ADS-B
Fri 08:10:04 AM 40.6160 -79.2690 251° West 419 482 34,000  Level FlightAware ADS-B
Fri 08:10:33 AM 40.5950 -79.3470 250° West 420 483 34,000  Level FlightAware ADS-B
Fri 08:11:09 AM 40.5780 -79.4130 251° West 420 483 34,000  Level FlightAware ADS-B
Fri 08:11:47 AM 40.5530 -79.5060 251° West 422 486 34,000  Level FlightAware ADS-B
Fri 08:12:19 AM 40.5280 -79.6000 251° West 430 495 34,000  Level FlightAware ADS-B
Fri 08:13:09 AM 40.4980 -79.7130 251° West 429 494 34,000  Level FlightAware ADS-B
Fri 08:13:40 AM 40.4730 -79.8020 250° West 429 494 34,000  Level FlightAware ADS-B
Fri 08:14:19 AM 40.4520 -79.8820 251° West 427 491 34,000  Level FlightAware ADS-B
Fri 08:15:02 AM 40.4280 -79.9700 250° West 429 494 34,000  Level FlightAware ADS-B
Fri 08:15:35 AM 40.4030 -80.0620 250° West 435 501 34,000  Level FlightAware ADS-B
Fri 08:16:16 AM 40.3800 -80.1460 250° West 431 496 34,000  Level FlightAware ADS-B
Fri 08:16:50 AM 40.3540 -80.2400 250° West 427 491 34,000  Level FlightAware ADS-B
Fri 08:17:28 AM 40.3310 -80.3240 250° West 429 494 34,000  Level FlightAware ADS-B
Fri 08:18:20 AM 40.2960 -80.4510 250° West 434 499 34,000  Level FlightAware ADS-B
Fri 08:18:57 AM 40.2680 -80.5540 250° West 434 499 34,000  Level FlightAware ADS-B
Fri 08:19:38 AM 40.2400 -80.6540 250° West 433 498 34,000  Level FlightAware ADS-B
Fri 08:20:12 AM 40.2170 -80.7350 250° West 433 498 34,000  Level FlightAware ADS-B
Fri 08:20:47 AM 40.1900 -80.8300 250° West 432 497 34,000  Level FlightAware ADS-B
Fri 08:21:29 AM 40.1640 -80.9260 251° West 430 495 34,000  Level FlightAware ADS-B
Fri 08:22:02 AM 40.1400 -81.0070 249° West 430 495 34,000  Level FlightAware ADS-B
Fri 08:22:33 AM 40.1170 -81.0910 250° West 431 496 34,000  Level FlightAware ADS-B
Fri 08:23:08 AM 40.0940 -81.1720 250° West 432 497 34,000  Level FlightAware ADS-B
Fri 08:23:45 AM 40.0680 -81.2620 249° West 435 501 34,000  Level FlightAware ADS-B
Fri 08:24:21 AM 40.0360 -81.3730 249° West 435 501 34,000  Level FlightAware ADS-B
Fri 08:24:58 AM 40.0110 -81.4620 250° West 436 502 34,000  Level FlightAware ADS-B
Fri 08:25:33 AM 39.9850 -81.5510 249° West 436 502 34,000  Level FlightAware ADS-B
Fri 08:26:05 AM 39.9630 -81.6320 251° West 435 501 34,000  Level FlightAware ADS-B
Fri 08:26:37 AM 39.9440 -81.7130 253° West 436 502 34,000  Level FlightAware ADS-B
Fri 08:27:18 AM 39.9200 -81.8150 253° West 436 502 34,000  Level FlightAware ADS-B
Fri 08:27:54 AM 39.8990 -81.9030 253° West 436 502 34,000  Level FlightAware ADS-B
Fri 08:28:24 AM 39.8810 -81.9760 252° West 435 501 34,000  Level FlightAware ADS-B
Fri 08:29:03 AM 39.8580 -82.0730 253° West 436 502 34,000  Level FlightAware ADS-B
Fri 08:29:39 AM 39.8360 -82.1660 253° West 437 503 34,000  Level FlightAware ADS-B
Fri 08:30:15 AM 39.8140 -82.2570 253° West 438 504 34,000  Level FlightAware ADS-B
Fri 08:30:47 AM 39.7960 -82.3320 253° West 438 504 34,000  Level FlightAware ADS-B
Fri 08:31:23 AM 39.7740 -82.4250 253° West 438 504 34,000  Level FlightAware ADS-B
Fri 08:31:59 AM 39.7510 -82.5170 252° West 438 504 34,000  Level FlightAware ADS-B
Fri 08:32:33 AM 39.7310 -82.6020 253° West 438 504 34,000  Level FlightAware ADS-B
Fri 08:33:07 AM 39.7090 -82.6880 252° West 438 504 34,000  Level FlightAware ADS-B
Fri 08:33:42 AM 39.6880 -82.7740 252° West 437 503 34,000 -583 Level FlightAware ADS-B
Fri 08:34:19 AM 39.6650 -82.8690 253° West 438 504 33,300 -1,217 Descending FlightAware ADS-B
Fri 08:34:51 AM 39.6460 -82.9460 252° West 436 502 32,600 -1,371 Descending FlightAware ADS-B
Fri 08:35:29 AM 39.6220 -83.0410 252° West 442 509 31,700 -1,459 Descending FlightAware ADS-B
Fri 08:36:05 AM 39.5990 -83.1330 252° West 448 516 30,800 -1,412 Descending FlightAware ADS-B
Fri 08:36:37 AM 39.5790 -83.2160 253° West 452 520 30,100 -706 Descending FlightAware ADS-B
Fri 08:37:13 AM 39.5550 -83.3090 252° West 455 524 30,000 -85 Descending FlightAware ADS-B
Fri 08:37:48 AM 39.5330 -83.3960 252° West 457 526 30,000  Level FlightAware ADS-B
Fri 08:38:25 AM 39.5080 -83.4980 252° West 457 526 30,000  Level FlightAware ADS-B
Fri 08:38:56 AM 39.4880 -83.5760 252° West 456 525 30,000  Level FlightAware ADS-B
Fri 08:39:33 AM 39.4630 -83.6720 251° West 457 526 30,000  Level FlightAware ADS-B
Fri 08:40:11 AM 39.4370 -83.7710 251° West 460 529 30,000  Level FlightAware ADS-B
Fri 08:40:43 AM 39.4080 -83.8500 245° Southwest 464 534 30,000  Level FlightAware ADS-B
Fri 08:41:19 AM 39.3680 -83.9370 239° Southwest 466 536 30,000  Level FlightAware ADS-B
Fri 08:41:53 AM 39.3310 -84.0180 239° Southwest 467 537 30,000  Level FlightAware ADS-B
Fri 08:42:25 AM 39.2960 -84.0960 240° Southwest 467 537 30,000  Level FlightAware ADS-B
Fri 08:43:05 AM 39.2530 -84.1900 239° Southwest 469 540 30,000 -575 Level FlightAware ADS-B
Fri 08:43:38 AM 39.2170 -84.2680 239° Southwest 465 535 29,300 -1,348 Descending FlightAware ADS-B
Fri 08:44:34 AM 39.1600 -84.3920 239° Southwest 464 534 28,000 -3,212 Descending FlightAware ADS-B
Fri 08:45:17 AM 39.1090 -84.5020 239° Southwest 461 531 24,000 -4,265 Descending FlightAware ADS-B
Fri 08:45:57 AM 39.0690 -84.5900 240° Southwest 448 516 22,100 -2,763 Descending FlightAware ADS-B
Fri 08:46:33 AM 39.0270 -84.6670 235° Southwest 440 506 20,500 -2,559 Descending FlightAware ADS-B
Fri 08:47:05 AM 38.9820 -84.7290 227° Southwest 436 502 19,200 -2,471 Descending FlightAware ADS-B
Fri 08:47:41 AM 38.9270 -84.7880 220° Southwest 432 497 17,700 -2,750 Descending FlightAware ADS-B
Fri 08:48:17 AM 38.8690 -84.8440 217° Southwest 419 482 15,900 -2,917 Descending FlightAware ADS-B
Fri 08:48:53 AM 38.8120 -84.9000 217° Southwest 400 460 14,200 -2,500 Descending FlightAware ADS-B
Fri 08:49:29 AM 38.7590 -84.9520 217° Southwest 403 464 12,900 -1,500 Descending FlightAware ADS-B
Fri 08:50:05 AM 38.7050 -85.0040 217° Southwest 401 461 12,400 -771 Descending FlightAware ADS-B
Fri 08:50:39 AM 38.6560 -85.0510 217° Southwest 399 459 12,000 -395 Descending FlightAware ADS-B
Fri 08:51:21 AM 38.5930 -85.1110 217° Southwest 397 457 11,900 -462 Descending FlightAware ADS-B
Fri 08:51:57 AM 38.5420 -85.1600 217° Southwest 367 422 11,400 -794 Descending FlightAware ADS-B
Fri 08:52:29 AM 38.5000 -85.2000 217° Southwest 338 389 11,000 -971 Descending FlightAware ADS-B
Fri 08:53:05 AM 38.4580 -85.2400 217° Southwest 309 356 10,300 -1,607 Descending FlightAware ADS-B
Fri 08:53:25 AM 38.4350 -85.2630 218° Southwest 300 345 9,500 -2,267 Descending FlightAware ADS-B
Fri 08:53:50 AM 38.4080 -85.2890 217° Southwest 292 336 8,600 -1,909 Descending FlightAware ADS-B
Fri 08:54:09 AM 38.3870 -85.3090 217° Southwest 289 333 8,100 -1,448 Descending FlightAware ADS-B
Fri 08:54:19 AM 38.3770 -85.3180 215° Southwest 289 333 7,900 -1,636 Descending FlightAware ADS-B
Fri 08:54:42 AM 38.3530 -85.3410 217° Southwest 289 333 7,200 -1,132 Descending FlightAware ADS-B
Fri 08:55:12 AM 38.3220 -85.3710 217° Southwest 287 330 6,900 -353 Descending FlightAware ADS-B
Fri 08:55:33 AM 38.3030 -85.3900 218° Southwest 289 333 6,900  Level FlightAware ADS-B
Fri 08:55:52 AM 38.2820 -85.4100 217° Southwest 290 334 6,900  Level FlightAware ADS-B
Fri 08:56:12 AM 38.2610 -85.4300 217° Southwest 292 336 6,900 -533 Level FlightAware ADS-B
Fri 08:56:37 AM 38.2360 -85.4620 225° Southwest 279 321 6,500 -1,029 Descending FlightAware ADS-B
Fri 08:56:47 AM 38.2320 -85.4740 247° West 275 316 6,300 -1,200 Descending FlightAware ADS-B
Fri 08:57:02 AM 38.2260 -85.5010 254° West 273 314 6,000 -600 Descending FlightAware ADS-B
Fri 08:57:27 AM 38.2180 -85.5410 256° West 273 314 5,900 -267 Descending FlightAware ADS-B
Fri 08:57:47 AM 38.2120 -85.5710 256° West 276 318 5,800  Descending FlightAware ADS-B
Fri 08:58:17 AM 38.2150 -85.6140 275° West 237 273 5,900 171 Climbing FlightAware ADS-B
Fri 08:58:22 AM 38.2160 -85.6180 288° West 232 267 5,900 -240 Level FlightAware ADS-B
Fri 08:58:42 AM 38.2330 -85.6360 320° Northwest 222 255 5,800 -1,200 Descending FlightAware ADS-B
Fri 08:59:02 AM 38.2530 -85.6440 343° North 220 253 5,100 -2,000 Descending FlightAware ADS-B
Fri 08:59:12 AM 38.2620 -85.6470 345° North 219 252 4,800 -1,714 Descending FlightAware ADS-B
Fri 08:59:37 AM 38.2850 -85.6550 345° North 216 249 4,100 -1,200 Descending FlightAware ADS-B
Fri 08:59:57 AM 38.3060 -85.6630 343° North 213 245 3,900 -480 Descending FlightAware ADS-B
Fri 09:00:02 AM 38.3090 -85.6640 345° North 213 245 3,900 -800 Level FlightAware ADS-B
Fri 09:00:12 AM 38.3170 -85.6710 326° Northwest 213 245 3,700 -1,200 Descending FlightAware ADS-B
Fri 09:00:17 AM 38.3210 -85.6780 306° West 211 243 3,600 -400 Descending FlightAware ADS-B
Fri 09:00:27 AM 38.3240 -85.6840 303° West 206 237 3,600 -621 Level FlightAware ADS-B
Fri 09:00:46 AM 38.3260 -85.7130 275° West 197 227 3,300 -857 Descending FlightAware ADS-B
Fri 09:01:02 AM 38.3230 -85.7300 257° West 194 223 3,100 -1,000 Descending FlightAware ADS-B
Fri 09:01:22 AM 38.3170 -85.7530 252° West 194 223 2,700 -1,000 Descending FlightAware ADS-B
Fri 09:01:44 AM 38.3060 -85.7730 235° Southwest 188 216 2,400 -600 Descending FlightAware ADS-B
Fri 09:01:52 AM 38.3010 -85.7780 218° Southwest 183 211 2,400  Level FlightAware ADS-B
Fri 09:02:04 AM 38.2920 -85.7830 204° Southwest 180 207 2,400 -500 Level FlightAware ADS-B
Fri 09:02:28 AM 38.2730 -85.7770 166° South 176 203 2,100 -818 Descending FlightAware ADS-B
Fri 09:02:48 AM 38.2580 -85.7720 165° South 157 181 1,800 -900 Descending FlightAware ADS-B
Fri 09:03:08 AM 38.2450 -85.7680 166° South 143 165 1,500 -750 Descending FlightAware ADS-B
Fri 09:03:28 AM 38.2320 -85.7630 163° South 140 161 1,300 -682 Descending FlightAware ADS-B
Fri 09:03:52 AM 38.2170 -85.7590 168° South 140 161 1,000 -682 Descending FlightAware ADS-B
Fri 09:04:12 AM 38.2040 -85.7540 163° South 138 159 800 -750 Descending FlightAware ADS-B
Fri 09:04:32 AM 38.1920 -85.7500 165° South 137 158 500 -882 Descending FlightAware ADS-B
Fri 09:04:46 AM 38.1830 -85.7480 170° South 141 162 300 -286 Descending FlightAware ADS-B
Fri 09:05:14 AM 38.1680 -85.7420 163° South 141 162 300  Level FlightAware ADS-B
Fri 09:10:00 AM 38.1667 -85.7333 208° Southwest  Level FlightAware Approximate
Fri 09:11:00 AM 38.1741 -85.7365 208° Southwest  Level Estimated
Fri 09:12:00 AM 38.1741 -85.7365 208° Southwest  Level Estimated

Login

Don't have an account? Register now (free) for customized features, flight alerts, and more!